Time;durP1;ratioP1;P1;durP2;ratioP2;P2;SDS_P1;SDS_P2;PMS_P1;PMS_P2;Temp;Humidity;BMP_temperature;BMP_pressure;BME280_temperature;BME280_humidity;BME280_pressure;Samples;Min_cycle;Max_cycle;Signal;HPM_P1;HPM_P2
2022/02/02 00:02:15;;;;;;;;;;;10.90;99.90;;;;;;5056346;28;20292;-80
2022/02/02 00:04:47;;;;;;;;;;;10.90;99.90;;;;;;5056182;28;19958;-79
2022/02/02 00:10:36;;;;;;;;;;;11.00;99.90;;;;;;5055788;28;19999;-79
2022/02/02 00:12:49;;;;;;;;;;;11.10;99.90;;;;;;5053267;28;19919;-79
2022/02/02 00:15:39;;;;;;;;;;;11.10;99.90;;;;;;5037835;28;20278;-78
2022/02/02 00:20:53;;;;;;;;;;;11.00;99.90;;;;;;5056326;28;20380;-79
2022/02/02 00:23:22;;;;;;;;;;;11.00;99.90;;;;;;5055222;28;19935;-80
2022/02/02 00:25:58;;;;;;;;;;;10.90;99.90;;;;;;5055485;28;19908;-80
2022/02/02 00:28:28;;;;;;;;;;;10.90;99.90;;;;;;5037506;28;20365;-79
2022/02/02 00:30:54;;;;;;;;;;;10.90;99.90;;;;;;5037761;28;19916;-79
2022/02/02 00:33:25;;;;;;;;;;;10.80;99.90;;;;;;5037682;28;19917;-79
2022/02/02 00:36:00;;;;;;;;;;;10.90;99.90;;;;;;5055799;28;19959;-79
2022/02/02 00:38:26;;;;;;;;;;;10.90;99.90;;;;;;5037483;28;20437;-79
2022/02/02 00:40:51;;;;;;;;;;;10.90;99.90;;;;;;5055949;28;19917;-80
2022/02/02 00:43:17;;;;;;;;;;;10.90;99.90;;;;;;5055780;28;19921;-80
2022/02/02 00:45:45;;;;;;;;;;;11.00;99.90;;;;;;5055577;28;20366;-79
2022/02/02 00:48:12;;;;;;;;;;;11.00;99.90;;;;;;5055407;28;20435;-79
2022/02/02 00:50:38;;;;;;;;;;;11.10;99.90;;;;;;5055281;28;20392;-79
2022/02/02 00:53:04;;;;;;;;;;;11.10;99.90;;;;;;5055068;28;19913;-79
2022/02/02 00:55:30;;;;;;;;;;;11.10;99.90;;;;;;5037625;28;19915;-80
2022/02/02 00:57:55;;;;;;;;;;;11.10;99.90;;;;;;5055065;28;19909;-79
2022/02/02 01:00:21;;;;;;;;;;;11.10;99.90;;;;;;5055126;28;19909;-81
2022/02/02 01:02:46;;;;;;;;;;;11.00;99.90;;;;;;5055014;28;20345;-80
2022/02/02 01:05:13;;;;;;;;;;;11.00;99.90;;;;;;5055006;28;19917;-79
2022/02/02 01:10:32;;;;;;;;;;;11.00;99.90;;;;;;5054959;28;19935;-79
2022/02/02 01:18:46;;;;;;;;;;;10.90;99.90;;;;;;5054840;28;20349;-80
2022/02/02 01:21:28;;;;;;;;;;;10.80;99.90;;;;;;5036760;28;20377;-79
2022/02/02 01:29:21;;;;;;;;;;;10.90;99.90;;;;;;5054594;28;19928;-80
2022/02/02 01:31:47;;;;;;;;;;;10.90;99.90;;;;;;5054601;28;20277;-79
2022/02/02 01:34:13;;;;;;;;;;;10.90;99.90;;;;;;5036567;28;19916;-80
2022/02/02 01:36:40;;;;;;;;;;;10.80;99.90;;;;;;5054156;28;20346;-79
2022/02/02 01:39:07;;;;;;;;;;;10.80;99.90;;;;;;5054488;28;20262;-79
2022/02/02 01:41:34;;;;;;;;;;;10.70;99.90;;;;;;5036349;28;20333;-79
2022/02/02 01:44:15;;;;;;;;;;;10.70;99.90;;;;;;5054197;28;19995;-79
2022/02/02 01:46:42;;;;;;;;;;;10.70;99.90;;;;;;5036053;28;20383;-79
2022/02/02 01:52:41;;;;;;;;;;;10.80;99.90;;;;;;5053750;28;19924;-80
2022/02/02 01:58:03;;;;;;;;;;;10.70;99.90;;;;;;5053976;28;19909;-78
2022/02/02 01:59:56;;;;;;;;;;;10.60;99.90;;;;;;5046338;28;19931;-78
2022/02/02 02:02:22;;;;;;;;;;;10.60;99.90;;;;;;5054345;28;19912;-79
2022/02/02 02:04:48;;;;;;;;;;;10.70;99.90;;;;;;5053895;28;19909;-78
2022/02/02 02:07:14;;;;;;;;;;;10.60;99.90;;;;;;5053842;28;19909;-79
2022/02/02 02:09:39;;;;;;;;;;;10.60;99.90;;;;;;5053832;28;19916;-79
2022/02/02 02:12:06;;;;;;;;;;;10.60;99.90;;;;;;5053826;28;19919;-79
2022/02/02 02:14:44;;;;;;;;;;;10.60;99.90;;;;;;5053637;28;19925;-79
2022/02/02 02:17:10;;;;;;;;;;;10.60;99.90;;;;;;5035513;28;19908;-79
2022/02/02 02:19:39;;;;;;;;;;;10.60;99.90;;;;;;5053741;28;19959;-79
2022/02/02 02:22:08;;;;;;;;;;;10.60;99.90;;;;;;5053651;28;19967;-79
2022/02/02 02:24:36;;;;;;;;;;;10.60;99.90;;;;;;5053574;28;20491;-79
2022/02/02 02:27:02;;;;;;;;;;;10.50;99.90;;;;;;5053577;28;20285;-79
2022/02/02 02:29:54;;;;;;;;;;;10.50;99.90;;;;;;5053553;28;19909;-80
2022/02/02 02:56:23;;;;;;;;;;;10.70;99.90;;;;;;5053028;28;19915;-80
2022/02/02 02:59:00;;;;;;;;;;;10.70;99.90;;;;;;5053178;28;19909;-79
2022/02/02 04:04:41;;;;;;;;;;;10.40;99.90;;;;;;5056210;28;19958;-79
2022/02/02 04:07:17;;;;;;;;;;;10.30;99.90;;;;;;5056325;28;20339;-78
2022/02/02 04:09:44;;;;;;;;;;;10.20;99.90;;;;;;5056133;28;19948;-79
2022/02/02 04:12:45;;;;;;;;;;;10.10;99.90;;;;;;5056126;28;19963;-79
2022/02/02 05:04:32;;;;;;;;;;;10.40;99.90;;;;;;5054990;28;20061;-79
2022/02/02 05:15:12;;;;;;;;;;;10.20;99.90;;;;;;5054736;28;19927;-79
2022/02/02 05:48:51;;;;;;;;;;;10.20;99.90;;;;;;5054859;28;19912;-79
2022/02/02 05:51:48;;;;;;;;;;;10.20;99.90;;;;;;5053713;28;19935;-79
2022/02/02 05:54:14;;;;;;;;;;;10.20;99.90;;;;;;5054079;28;19916;-79
2022/02/02 05:56:42;;;;;;;;;;;10.20;99.90;;;;;;5054075;28;19909;-80
2022/02/02 05:59:09;;;;;;;;;;;10.20;99.90;;;;;;5053971;28;19926;-80
2022/02/02 06:01:36;;;;;;;;;;;10.20;99.90;;;;;;5036065;28;20376;-79
2022/02/02 06:04:04;;;;;;;;;;;10.10;99.90;;;;;;5053859;28;20434;-79
2022/02/02 06:06:31;;;;;;;;;;;10.10;99.90;;;;;;5054077;28;19908;-80
2022/02/02 06:08:57;;;;;;;;;;;10.00;99.90;;;;;;5053798;28;19908;-78
2022/02/02 06:11:24;;;;;;;;;;;10.00;99.90;;;;;;5053855;28;19912;-80
2022/02/02 06:13:54;;;;;;;;;;;10.00;99.90;;;;;;5053522;28;20003;-81
2022/02/02 06:16:20;;;;;;;;;;;10.00;99.90;;;;;;5035564;28;19960;-79
2022/02/02 06:18:54;;;;;;;;;;;10.00;99.90;;;;;;5053692;28;19916;-81
2022/02/02 06:21:21;;;;;;;;;;;10.00;99.90;;;;;;5053217;28;20276;-79
2022/02/02 06:23:52;;;;;;;;;;;10.00;99.90;;;;;;5053286;28;20373;-80
2022/02/02 06:26:19;;;;;;;;;;;10.00;99.90;;;;;;5035460;28;19909;-79
2022/02/02 06:28:45;;;;;;;;;;;10.00;99.90;;;;;;5053533;28;19913;-80
2022/02/02 06:31:12;;;;;;;;;;;10.00;99.90;;;;;;5052057;28;19908;-80
2022/02/02 06:33:38;;;;;;;;;;;9.90;99.90;;;;;;5053467;28;19908;-79
2022/02/02 06:36:05;;;;;;;;;;;10.00;99.90;;;;;;5053335;28;19909;-80
2022/02/02 06:38:31;;;;;;;;;;;10.00;99.90;;;;;;5053642;28;19909;-78
2022/02/02 06:40:58;;;;;;;;;;;10.10;99.90;;;;;;5053415;28;19955;-80
2022/02/02 06:43:24;;;;;;;;;;;10.00;99.90;;;;;;5053601;28;20357;-80
2022/02/02 06:45:50;;;;;;;;;;;10.00;99.90;;;;;;5053354;28;19996;-79
2022/02/02 06:48:17;;;;;;;;;;;9.90;99.90;;;;;;5053212;28;20358;-79
2022/02/02 06:50:50;;;;;;;;;;;9.90;99.90;;;;;;5053750;28;19912;-79
2022/02/02 06:53:31;;;;;;;;;;;10.00;99.90;;;;;;5053630;28;19913;-79
2022/02/02 06:56:42;;;;;;;;;;;10.00;99.90;;;;;;5053245;28;19915;-80
2022/02/02 07:01:56;;;;;;;;;;;9.90;99.90;;;;;;5052763;28;19909;-78
2022/02/02 07:15:51;;;;;;;;;;;9.90;99.90;;;;;;5052817;28;20401;-80
2022/02/02 07:21:15;;;;;;;;;;;10.00;99.90;;;;;;5052720;28;19955;-79
2022/02/02 07:31:55;;;;;;;;;;;9.80;99.90;;;;;;5027816;28;19917;-81
2022/02/02 07:34:45;;;;;;;;;;;9.80;99.90;;;;;;5055891;28;20004;-78
2022/02/02 07:37:16;;;;;;;;;;;9.80;99.90;;;;;;5056783;28;19916;-79
2022/02/02 07:39:44;;;;;;;;;;;9.90;99.90;;;;;;5056674;28;19916;-79
2022/02/02 07:42:10;;;;;;;;;;;10.00;99.90;;;;;;5056635;28;19909;-79
2022/02/02 07:44:37;;;;;;;;;;;9.90;99.90;;;;;;5056641;28;19916;-79
2022/02/02 07:47:05;;;;;;;;;;;10.00;99.90;;;;;;5056527;28;19913;-79
2022/02/02 07:49:35;;;;;;;;;;;10.10;99.90;;;;;;5056474;28;19909;-80
2022/02/02 07:52:01;;;;;;;;;;;10.10;99.90;;;;;;5056504;28;19994;-79
2022/02/02 07:54:34;;;;;;;;;;;10.10;99.90;;;;;;5056450;28;20331;-81
2022/02/02 07:57:02;;;;;;;;;;;10.20;99.90;;;;;;5056438;28;19975;-80
2022/02/02 08:02:07;;;;;;;;;;;10.20;99.90;;;;;;5056448;28;19920;-79
2022/02/02 08:04:36;;;;;;;;;;;10.20;99.90;;;;;;5056753;28;19912;-80
2022/02/02 08:07:07;;;;;;;;;;;10.20;99.90;;;;;;5038745;28;19920;-79
2022/02/02 08:09:48;;;;;;;;;;;10.20;99.90;;;;;;5020864;28;19940;-79
2022/02/02 08:12:18;;;;;;;;;;;10.20;99.90;;;;;;5056171;28;20004;-80
2022/02/02 08:14:53;;;;;;;;;;;10.20;99.90;;;;;;5055617;28;19921;-80
2022/02/02 08:17:20;;;;;;;;;;;10.30;99.90;;;;;;5038008;28;19913;-79
2022/02/02 08:19:46;;;;;;;;;;;10.30;99.90;;;;;;5055930;28;19909;-79
2022/02/02 08:22:12;;;;;;;;;;;10.30;99.90;;;;;;5055875;28;20284;-79
2022/02/02 08:24:37;;;;;;;;;;;10.30;99.90;;;;;;5055811;28;20424;-80
2022/02/02 08:27:04;;;;;;;;;;;10.30;99.90;;;;;;5037821;28;19954;-79
2022/02/02 08:29:31;;;;;;;;;;;10.40;99.90;;;;;;5021290;28;19920;-79
2022/02/02 08:31:56;;;;;;;;;;;10.40;99.90;;;;;;5055575;28;19912;-80
2022/02/02 08:34:22;;;;;;;;;;;10.50;99.90;;;;;;5055672;28;19939;-79
2022/02/02 08:36:52;;;;;;;;;;;10.50;99.90;;;;;;5055691;28;19940;-79
2022/02/02 08:40:22;;;;;;;;;;;10.50;99.90;;;;;;5037978;28;20407;-80
2022/02/02 08:42:15;;;;;;;;;;;10.50;99.90;;;;;;5046191;28;19960;-79
2022/02/02 08:45:01;;;;;;;;;;;10.60;99.90;;;;;;5054635;28;19916;-80
2022/02/02 08:47:26;;;;;;;;;;;10.80;99.90;;;;;;5055435;28;20424;-79
2022/02/02 08:49:57;;;;;;;;;;;10.90;99.90;;;;;;5055341;28;20003;-79
2022/02/02 08:52:32;;;;;;;;;;;11.00;99.90;;;;;;5037248;28;20369;-79
2022/02/02 08:55:04;;;;;;;;;;;11.00;99.90;;;;;;5037087;28;19916;-79
2022/02/02 08:57:47;;;;;;;;;;;11.00;99.90;;;;;;5055497;28;19958;-79
2022/02/02 09:00:17;;;;;;;;;;;10.90;99.90;;;;;;5055394;28;19992;-79
2022/02/02 09:02:55;;;;;;;;;;;10.70;99.90;;;;;;5055391;28;20369;-79
2022/02/02 09:05:25;;;;;;;;;;;10.70;99.90;;;;;;5055092;28;20011;-80
2022/02/02 09:07:51;;;;;;;;;;;10.70;99.90;;;;;;5037098;28;20359;-80
2022/02/02 09:10:25;;;;;;;;;;;10.80;99.90;;;;;;5054937;28;19916;-78
2022/02/02 09:23:57;;;;;;;;;;;11.20;99.90;;;;;;5055073;28;19909;-79
2022/02/02 09:31:24;;;;;;;;;;;11.40;99.90;;;;;;5036516;28;19919;-80
2022/02/02 09:32:13;;;;;;;;;;;11.50;99.90;;;;;;5054271;28;19923;-78
2022/02/02 09:34:38;;;;;;;;;;;11.40;99.90;;;;;;5054421;28;20347;-81
2022/02/02 09:37:04;;;;;;;;;;;11.50;99.90;;;;;;5054436;28;19992;-79
2022/02/02 09:39:37;;;;;;;;;;;11.40;99.90;;;;;;5054833;28;19935;-78
2022/02/02 09:42:12;;;;;;;;;;;11.30;99.90;;;;;;5054458;28;20399;-79
2022/02/02 09:44:40;;;;;;;;;;;11.10;99.90;;;;;;5036178;28;19955;-79
2022/02/02 09:49:42;;;;;;;;;;;11.00;99.90;;;;;;5054487;28;19909;-79
2022/02/02 09:57:30;;;;;;;;;;;10.80;99.90;;;;;;5054214;28;20373;-79
2022/02/02 10:00:12;;;;;;;;;;;10.90;99.90;;;;;;5053817;28;19916;-79
2022/02/02 10:03:01;;;;;;;;;;;11.00;99.90;;;;;;5035924;28;19916;-80
2022/02/02 10:05:32;;;;;;;;;;;11.10;99.90;;;;;;5035791;28;19955;-78
2022/02/02 10:13:48;;;;;;;;;;;11.30;99.90;;;;;;5053702;28;20380;-78
2022/02/02 10:16:21;;;;;;;;;;;11.20;99.90;;;;;;5053363;28;20031;-80
2022/02/02 10:18:46;;;;;;;;;;;11.20;99.90;;;;;;5053716;28;19909;-80
2022/02/02 10:21:12;;;;;;;;;;;11.20;99.90;;;;;;5053608;28;19928;-80
2022/02/02 10:23:40;;;;;;;;;;;11.30;99.90;;;;;;5053953;28;19909;-79
2022/02/02 10:26:15;;;;;;;;;;;11.20;99.90;;;;;;5035744;28;19917;-79
2022/02/02 10:28:41;;;;;;;;;;;11.30;99.90;;;;;;5035675;28;19909;-80
2022/02/02 10:31:07;;;;;;;;;;;11.40;99.90;;;;;;5053523;28;19909;-80
2022/02/02 10:33:33;;;;;;;;;;;11.50;99.90;;;;;;5053484;28;19924;-80
2022/02/02 10:36:08;;;;;;;;;;;11.40;99.90;;;;;;5053457;28;20331;-79
2022/02/02 10:38:50;;;;;;;;;;;11.20;99.90;;;;;;5053843;28;19909;-79
2022/02/02 10:41:32;;;;;;;;;;;11.10;99.90;;;;;;5053990;28;19955;-79
2022/02/02 10:44:01;;;;;;;;;;;11.10;99.90;;;;;;5053408;28;20317;-79
2022/02/02 10:46:37;;;;;;;;;;;11.20;99.90;;;;;;5035458;28;20330;-78
2022/02/02 10:49:12;;;;;;;;;;;11.40;99.90;;;;;;5053550;28;19943;-79
2022/02/02 10:51:51;;;;;;;;;;;11.40;99.90;;;;;;5053411;28;19974;-79
2022/02/02 10:57:12;;;;;;;;;;;11.50;99.90;;;;;;5052970;28;20426;-79
2022/02/02 11:07:34;;;;;;;;;;;11.80;99.90;;;;;;5052993;28;20400;-80
2022/02/02 11:09:59;;;;;;;;;;;11.80;99.90;;;;;;5039179;28;20450;-79
2022/02/02 11:12:29;;;;;;;;;;;11.70;99.90;;;;;;5057080;28;19964;-79
2022/02/02 11:15:01;;;;;;;;;;;11.70;99.90;;;;;;5056915;28;20285;-79
2022/02/02 11:17:39;;;;;;;;;;;11.80;99.90;;;;;;5057087;28;19908;-79
2022/02/02 11:20:05;;;;;;;;;;;11.90;99.90;;;;;;5057101;28;20416;-79
2022/02/02 11:22:31;;;;;;;;;;;12.00;99.90;;;;;;5057071;28;19909;-79
2022/02/02 11:25:03;;;;;;;;;;;11.90;99.90;;;;;;5056910;28;20404;-80
2022/02/02 11:27:36;;;;;;;;;;;11.90;99.90;;;;;;5057103;28;19909;-79
2022/02/02 11:30:08;;;;;;;;;;;11.90;99.90;;;;;;5056933;28;19915;-79
2022/02/02 11:32:39;;;;;;;;;;;12.00;99.90;;;;;;5056707;28;19956;-80
2022/02/02 11:35:23;;;;;;;;;;;12.10;99.90;;;;;;5056737;28;19909;-80
2022/02/02 11:37:56;;;;;;;;;;;12.10;99.90;;;;;;5038767;28;19962;-79
2022/02/02 11:40:22;;;;;;;;;;;12.10;99.90;;;;;;5056827;28;19909;-80
2022/02/02 11:43:04;;;;;;;;;;;12.10;99.90;;;;;;5056634;28;20288;-79
2022/02/02 11:45:37;;;;;;;;;;;12.20;99.90;;;;;;5057026;28;20381;-80
2022/02/02 11:48:08;;;;;;;;;;;12.20;99.90;;;;;;5056492;28;20284;-79
2022/02/02 11:51:01;;;;;;;;;;;12.30;99.90;;;;;;5056596;28;20369;-81
2022/02/02 11:53:45;;;;;;;;;;;12.30;99.90;;;;;;5053932;28;19913;-79
2022/02/02 11:56:11;;;;;;;;;;;12.50;99.90;;;;;;5056737;28;20328;-79
2022/02/02 11:58:37;;;;;;;;;;;12.60;99.90;;;;;;5056520;28;19955;-78
2022/02/02 12:03:46;;;;;;;;;;;12.70;99.90;;;;;;5056174;28;19909;-79
2022/02/02 12:09:08;;;;;;;;;;;12.60;99.90;;;;;;5055996;28;19932;-79
2022/02/02 12:56:59;;;;;;;;;;;12.70;99.90;;;;;;5034163;28;19909;-79
2022/02/02 12:59:41;;;;;;;;;;;13.10;99.90;;;;;;5055251;28;20028;-78
2022/02/02 13:02:07;;;;;;;;;;;13.10;99.90;;;;;;5036974;28;19908;-79
2022/02/02 13:04:33;;;;;;;;;;;13.20;99.90;;;;;;5055101;28;19958;-80
2022/02/02 13:07:08;;;;;;;;;;;12.80;99.90;;;;;;5055115;28;19908;-79
2022/02/02 13:09:34;;;;;;;;;;;12.70;99.90;;;;;;5055158;28;19913;-80
2022/02/02 13:12:16;;;;;;;;;;;12.60;99.90;;;;;;5054851;28;20376;-79
2022/02/02 13:14:58;;;;;;;;;;;13.10;99.90;;;;;;5036590;28;20432;-79
2022/02/02 13:17:24;;;;;;;;;;;13.00;99.90;;;;;;5054909;28;19912;-80
2022/02/02 13:19:57;;;;;;;;;;;13.00;99.90;;;;;;5055028;28;20376;-81
2022/02/02 13:22:22;;;;;;;;;;;13.10;99.90;;;;;;5054755;28;19909;-81
2022/02/02 13:24:49;;;;;;;;;;;13.30;99.90;;;;;;5054663;28;20471;-79
2022/02/02 13:27:18;;;;;;;;;;;13.40;99.90;;;;;;5054629;28;20000;-80
2022/02/02 13:29:51;;;;;;;;;;;13.40;99.90;;;;;;5054925;28;19909;-79
2022/02/02 13:32:25;;;;;;;;;;;13.40;99.90;;;;;;5054163;28;20357;-79
2022/02/02 14:01:12;;;;;;;;;;;13.10;99.90;;;;;;5054222;28;20007;-80
2022/02/02 14:32:57;;;;;;;;;;;12.30;99.90;;;;;;5053297;28;19974;-79
2022/02/02 14:35:23;;;;;;;;;;;12.40;99.90;;;;;;5053560;28;20357;-78
2022/02/02 14:37:51;;;;;;;;;;;12.30;99.90;;;;;;5035711;28;19908;-80
2022/02/02 14:40:27;;;;;;;;;;;12.50;99.90;;;;;;5053473;28;19908;-79
2022/02/02 14:42:56;;;;;;;;;;;12.60;99.90;;;;;;5034520;28;19916;-80
2022/02/02 14:45:25;;;;;;;;;;;12.50;99.90;;;;;;5053447;28;19908;-80
2022/02/02 14:47:56;;;;;;;;;;;12.40;99.90;;;;;;5053379;28;19944;-80
2022/02/02 14:50:34;;;;;;;;;;;12.40;99.90;;;;;;5035233;28;19948;-80
2022/02/02 15:28:00;;;;;;;;;;;11.80;99.90;;;;;;5053007;28;19909;-79
2022/02/02 15:33:25;;;;;;;;;;;11.70;99.90;;;;;;5032327;28;19916;-80
2022/02/02 15:36:03;;;;;;;;;;;11.70;99.90;;;;;;5069675;28;20971;-79
2022/02/02 15:38:29;;;;;;;;;;;11.50;99.90;;;;;;5052585;28;19958;-79
2022/02/02 15:41:01;;;;;;;;;;;11.40;99.90;;;;;;5052372;28;20333;-79
2022/02/02 15:43:38;;;;;;;;;;;11.20;99.90;;;;;;5056984;28;20049;-79
2022/02/02 16:02:19;;;;;;;;;;;11.40;99.90;;;;;;5054393;28;20377;-80
2022/02/02 16:04:45;;;;;;;;;;;11.40;99.90;;;;;;5055835;28;19913;-80
2022/02/02 16:07:19;;;;;;;;;;;11.30;99.90;;;;;;5055910;28;20000;-80
2022/02/02 16:10:26;;;;;;;;;;;11.20;99.90;;;;;;5055870;28;19909;-80
2022/02/02 16:12:45;;;;;;;;;;;11.10;99.90;;;;;;5050275;28;19913;-79
2022/02/02 16:34:36;;;;;;;;;;;11.40;99.90;;;;;;5055289;28;19923;-78
2022/02/02 16:44:18;;;;;;;;;;;10.90;99.90;;;;;;5054952;28;20331;-80
2022/02/02 16:46:43;;;;;;;;;;;10.90;99.90;;;;;;5055124;28;19916;-80
2022/02/02 16:49:10;;;;;;;;;;;10.90;99.90;;;;;;5054964;28;19935;-80
2022/02/02 16:51:36;;;;;;;;;;;10.90;99.90;;;;;;5052415;28;20423;-80
2022/02/02 16:54:05;;;;;;;;;;;10.90;99.90;;;;;;5055024;28;19940;-79
2022/02/02 16:57:03;;;;;;;;;;;10.80;99.90;;;;;;5055119;28;20000;-79
2022/02/02 17:32:07;;;;;;;;;;;10.20;99.90;;;;;;5069753;28;19909;-79
2022/02/02 17:35:08;;;;;;;;;;;10.10;99.90;;;;;;5053500;28;19963;-79
2022/02/02 17:40:13;;;;;;;;;;;10.10;99.90;;;;;;5053886;28;19916;-79
2022/02/02 17:56:28;;;;;;;;;;;9.30;99.90;;;;;;5073432;28;19962;-79
2022/02/02 18:02:25;;;;;;;;;;;9.20;99.90;;;;;;5073625;28;19908;-80
2022/02/02 18:18:49;;;;;;;;;;;8.80;99.90;;;;;;5052330;28;19909;-79
2022/02/02 18:20:43;;;;;;;;;;;8.80;99.90;;;;;;5042424;28;19967;-80
2022/02/02 18:23:31;;;;;;;;;;;8.70;99.90;;;;;;5035242;28;19943;-78
2022/02/02 18:31:40;;;;;;;;;;;8.50;99.90;;;;;;5073367;28;20315;-79
2022/02/02 18:34:34;;;;;;;;;;;8.40;99.90;;;;;;5073301;28;20425;-80
2022/02/02 18:37:17;;;;;;;;;;;8.50;99.90;;;;;;5062077;28;19909;-80
2022/02/02 19:02:04;;;;;;;;;;;7.80;99.90;;;;;;5053080;28;20385;-79
2022/02/02 19:04:09;;;;;;;;;;;7.70;99.90;;;;;;5039401;28;19974;-79
2022/02/02 19:55:44;;;;;;;;;;;6.70;99.90;;;;;;5056174;28;20365;-79
2022/02/02 20:11:31;;;;;;;;;;;6.70;99.90;;;;;;5056014;28;19934;-79
2022/02/02 20:13:56;;;;;;;;;;;6.80;99.90;;;;;;5055631;28;20387;-78
2022/02/02 20:16:22;;;;;;;;;;;6.70;99.90;;;;;;5054999;28;19929;-80
2022/02/02 20:18:51;;;;;;;;;;;6.80;99.90;;;;;;5073588;28;19908;-79
2022/02/02 20:21:21;;;;;;;;;;;6.80;99.90;;;;;;5075797;28;19909;-79
2022/02/02 20:23:49;;;;;;;;;;;6.90;99.90;;;;;;5075517;28;19963;-80
2022/02/02 20:26:17;;;;;;;;;;;7.00;99.90;;;;;;5053512;28;19916;-79
2022/02/02 20:28:44;;;;;;;;;;;7.10;99.90;;;;;;5074558;28;19991;-79
2022/02/02 20:31:09;;;;;;;;;;;7.10;99.90;;;;;;5075449;28;19920;-79
2022/02/02 20:33:35;;;;;;;;;;;7.30;99.90;;;;;;5075403;28;19913;-79
2022/02/02 20:36:00;;;;;;;;;;;7.30;99.90;;;;;;5074548;28;19908;-79
2022/02/02 20:38:26;;;;;;;;;;;7.10;99.90;;;;;;5072583;28;19908;-78
2022/02/02 20:40:52;;;;;;;;;;;7.30;99.90;;;;;;5073993;28;19934;-79
2022/02/02 20:43:45;;;;;;;;;;;7.40;99.90;;;;;;5075189;28;20284;-79
2022/02/02 21:10:32;;;;;;;;;;;7.70;99.90;;;;;;5054468;28;19909;-80
2022/02/02 21:15:43;;;;;;;;;;;8.00;99.90;;;;;;5054491;28;19947;-80
2022/02/02 21:18:12;;;;;;;;;;;7.90;99.90;;;;;;5048137;28;20403;-79
2022/02/02 21:23:12;;;;;;;;;;;7.60;99.90;;;;;;5074393;28;19912;-78
2022/02/02 21:28:07;;;;;;;;;;;7.80;99.90;;;;;;5053538;28;19913;-79
2022/02/02 21:30:33;;;;;;;;;;;8.00;99.90;;;;;;5054213;28;19909;-78
2022/02/02 21:32:59;;;;;;;;;;;8.00;99.90;;;;;;5054225;28;20387;-79
2022/02/02 21:35:25;;;;;;;;;;;8.10;99.90;;;;;;5054291;28;19950;-78
2022/02/02 21:37:59;;;;;;;;;;;8.20;99.90;;;;;;5045027;28;19908;-79
2022/02/02 21:40:27;;;;;;;;;;;8.10;99.90;;;;;;5074105;28;19986;-78
2022/02/02 21:42:56;;;;;;;;;;;8.10;99.90;;;;;;5073986;28;19908;-79
2022/02/02 21:45:22;;;;;;;;;;;8.20;99.90;;;;;;5074136;28;19916;-80
2022/02/02 21:47:48;;;;;;;;;;;8.30;99.90;;;;;;5063236;28;19974;-79
2022/02/02 21:50:17;;;;;;;;;;;8.20;99.90;;;;;;5055600;28;19909;-79
2022/02/02 21:52:43;;;;;;;;;;;8.20;99.90;;;;;;5055404;28;19912;-79
2022/02/02 21:55:09;;;;;;;;;;;8.20;99.90;;;;;;5073543;28;20273;-79
2022/02/02 21:57:35;;;;;;;;;;;8.30;99.90;;;;;;5052536;28;19935;-79
2022/02/02 22:00:01;;;;;;;;;;;8.50;99.90;;;;;;5073758;28;19909;-80
2022/02/02 22:02:32;;;;;;;;;;;8.60;99.90;;;;;;5073672;28;19909;-79
2022/02/02 22:04:58;;;;;;;;;;;8.40;99.90;;;;;;5055466;28;20339;-79
2022/02/02 22:07:23;;;;;;;;;;;8.40;99.90;;;;;;5048799;28;19938;-80
2022/02/02 22:09:53;;;;;;;;;;;8.40;99.90;;;;;;5055430;28;19999;-80
2022/02/02 22:12:19;;;;;;;;;;;8.40;99.90;;;;;;5073411;28;19917;-79
2022/02/02 22:14:46;;;;;;;;;;;8.20;99.90;;;;;;5055312;28;20046;-79
2022/02/02 22:17:12;;;;;;;;;;;8.10;99.90;;;;;;5065275;28;19935;-80
2022/02/02 22:19:37;;;;;;;;;;;8.20;99.90;;;;;;5073361;28;20353;-79
2022/02/02 22:22:03;;;;;;;;;;;8.20;99.90;;;;;;5073405;28;20291;-79
2022/02/02 22:24:30;;;;;;;;;;;8.10;99.90;;;;;;5055204;28;20300;-79
2022/02/02 22:26:56;;;;;;;;;;;8.10;99.90;;;;;;5048671;28;19967;-79
2022/02/02 22:29:22;;;;;;;;;;;7.90;99.90;;;;;;5071570;28;19909;-80
2022/02/02 22:31:47;;;;;;;;;;;8.10;99.90;;;;;;5073080;28;19908;-79
2022/02/02 22:34:13;;;;;;;;;;;8.20;99.90;;;;;;5073355;28;19917;-80
2022/02/02 22:36:38;;;;;;;;;;;8.00;99.90;;;;;;5070344;28;19984;-79
2022/02/02 22:39:06;;;;;;;;;;;8.10;99.90;;;;;;5072425;28;19909;-79
2022/02/02 22:41:32;;;;;;;;;;;8.00;99.90;;;;;;5072959;28;20403;-79
2022/02/02 22:43:59;;;;;;;;;;;8.10;99.90;;;;;;5073027;28;19951;-80
2022/02/02 22:46:28;;;;;;;;;;;8.30;99.90;;;;;;5050490;28;20285;-80
2022/02/02 22:48:57;;;;;;;;;;;8.20;99.90;;;;;;5039181;28;19979;-79
2022/02/02 22:51:23;;;;;;;;;;;8.20;99.90;;;;;;5052907;28;20322;-79
2022/02/02 22:53:48;;;;;;;;;;;8.30;99.90;;;;;;5034685;28;19988;-79
2022/02/02 22:56:14;;;;;;;;;;;8.30;99.90;;;;;;5053536;28;19915;-79
2022/02/02 22:58:46;;;;;;;;;;;8.30;99.90;;;;;;5070932;28;19909;-78
2022/02/02 23:01:12;;;;;;;;;;;8.30;99.90;;;;;;5072972;28;19915;-78
2022/02/02 23:03:38;;;;;;;;;;;8.30;99.90;;;;;;5073038;28;19910;-79
2022/02/02 23:06:04;;;;;;;;;;;8.30;99.90;;;;;;5075844;28;19912;-80
2022/02/02 23:08:30;;;;;;;;;;;8.10;99.90;;;;;;5074769;28;19909;-79
2022/02/02 23:10:56;;;;;;;;;;;8.10;99.90;;;;;;5076963;28;19955;-79
2022/02/02 23:13:22;;;;;;;;;;;8.10;99.90;;;;;;5076917;28;19912;-80
2022/02/02 23:15:58;;;;;;;;;;;8.30;99.90;;;;;;5076752;28;20414;-80
2022/02/02 23:18:27;;;;;;;;;;;8.30;99.90;;;;;;5050014;28;19912;-79
2022/02/02 23:20:56;;;;;;;;;;;8.10;99.90;;;;;;5076767;28;20385;-79
2022/02/02 23:23:24;;;;;;;;;;;8.20;99.90;;;;;;5058644;28;19917;-79
2022/02/02 23:25:50;;;;;;;;;;;8.20;99.90;;;;;;5076714;28;19995;-79
2022/02/02 23:28:26;;;;;;;;;;;8.30;99.90;;;;;;5065265;28;19909;-79
2022/02/02 23:30:53;;;;;;;;;;;8.10;99.90;;;;;;5038291;28;19908;-79
2022/02/02 23:33:19;;;;;;;;;;;8.00;99.90;;;;;;5056511;28;19917;-79
2022/02/02 23:35:45;;;;;;;;;;;8.10;99.90;;;;;;5056432;28;19975;-79
2022/02/02 23:38:11;;;;;;;;;;;8.10;99.90;;;;;;5058182;28;19909;-80
2022/02/02 23:43:18;;;;;;;;;;;8.00;99.90;;;;;;5056426;28;19909;-79
2022/02/02 23:45:48;;;;;;;;;;;8.00;99.90;;;;;;5038291;28;19916;-79
2022/02/02 23:48:14;;;;;;;;;;;7.90;99.90;;;;;;5066469;28;19912;-79
2022/02/02 23:50:40;;;;;;;;;;;7.90;99.90;;;;;;5076276;28;20372;-79
2022/02/02 23:53:06;;;;;;;;;;;7.80;99.90;;;;;;5075917;28;19958;-79
2022/02/02 23:55:37;;;;;;;;;;;7.90;99.90;;;;;;5075864;28;19924;-79
2022/02/02 23:58:11;;;;;;;;;;;7.90;99.90;;;;;;5067013;28;20016;-79
